sensor_id;sensor_type;location;lat;lon;timestamp;pressure;altitude;pressure_sealevel;temperature;humidity
48874;BME280;66155;46.204;5.220;2023-04-09T00:01:09;99040.63;;;9.90;57.51
48874;BME280;66155;46.204;5.220;2023-04-09T00:06:10;99035.88;;;9.87;57.20
48874;BME280;66155;46.204;5.220;2023-04-09T00:11:11;99041.81;;;9.83;56.95
48874;BME280;66155;46.204;5.220;2023-04-09T00:16:11;99045.94;;;9.67;58.02
48874;BME280;66155;46.204;5.220;2023-04-09T00:21:12;99042.47;;;9.38;59.09
48874;BME280;66155;46.204;5.220;2023-04-09T00:26:12;99038.88;;;9.39;59.15
48874;BME280;66155;46.204;5.220;2023-04-09T00:31:13;99039.03;;;9.20;59.15
48874;BME280;66155;46.204;5.220;2023-04-09T00:36:14;99031.56;;;9.12;59.24
48874;BME280;66155;46.204;5.220;2023-04-09T00:41:16;99035.84;;;9.18;58.99
48874;BME280;66155;46.204;5.220;2023-04-09T00:46:18;99042.09;;;9.17;59.26
48874;BME280;66155;46.204;5.220;2023-04-09T00:51:18;99034.53;;;8.92;61.05
48874;BME280;66155;46.204;5.220;2023-04-09T00:56:20;99035.41;;;8.86;60.43
48874;BME280;66155;46.204;5.220;2023-04-09T01:01:22;99031.56;;;8.53;62.91
48874;BME280;66155;46.204;5.220;2023-04-09T01:06:37;99030.53;;;8.54;62.66
48874;BME280;66155;46.204;5.220;2023-04-09T01:17:30;99019.25;;;8.48;63.03
48874;BME280;66155;46.204;5.220;2023-04-09T01:22:40;99021.41;;;8.51;62.04
48874;BME280;66155;46.204;5.220;2023-04-09T01:28:01;99028.28;;;8.57;62.20
48874;BME280;66155;46.204;5.220;2023-04-09T01:33:02;99024.56;;;8.53;62.99
48874;BME280;66155;46.204;5.220;2023-04-09T01:38:04;99012.59;;;8.64;61.72
48874;BME280;66155;46.204;5.220;2023-04-09T01:43:06;99013.84;;;8.50;62.06
48874;BME280;66155;46.204;5.220;2023-04-09T01:48:07;99010.34;;;8.68;61.33
48874;BME280;66155;46.204;5.220;2023-04-09T01:53:08;99016.09;;;8.70;61.27
48874;BME280;66155;46.204;5.220;2023-04-09T01:58:09;99016.22;;;8.75;60.87
48874;BME280;66155;46.204;5.220;2023-04-09T02:03:14;99009.44;;;8.86;60.15
48874;BME280;66155;46.204;5.220;2023-04-09T02:08:19;99008.19;;;9.00;60.00
48874;BME280;66155;46.204;5.220;2023-04-09T02:13:21;99014.88;;;9.08;59.66
48874;BME280;66155;46.204;5.220;2023-04-09T02:18:27;99010.78;;;9.12;59.74
48874;BME280;66155;46.204;5.220;2023-04-09T02:23:27;99002.97;;;9.12;59.65
48874;BME280;66155;46.204;5.220;2023-04-09T02:28:28;99003.19;;;9.10;60.08
48874;BME280;66155;46.204;5.220;2023-04-09T02:33:28;99006.81;;;9.09;60.03
48874;BME280;66155;46.204;5.220;2023-04-09T02:38:30;99008.41;;;9.10;59.73
48874;BME280;66155;46.204;5.220;2023-04-09T02:43:30;99005.34;;;9.13;59.82
48874;BME280;66155;46.204;5.220;2023-04-09T02:48:32;99003.69;;;8.96;60.85
48874;BME280;66155;46.204;5.220;2023-04-09T02:53:32;99009.00;;;8.65;62.19
48874;BME280;66155;46.204;5.220;2023-04-09T02:58:33;99011.19;;;8.38;61.85
48874;BME280;66155;46.204;5.220;2023-04-09T03:03:33;99014.19;;;8.11;62.90
48874;BME280;66155;46.204;5.220;2023-04-09T03:08:34;99018.50;;;8.17;62.15
48874;BME280;66155;46.204;5.220;2023-04-09T03:13:34;99019.28;;;8.18;62.39
48874;BME280;66155;46.204;5.220;2023-04-09T03:18:36;99013.47;;;8.04;62.49
48874;BME280;66155;46.204;5.220;2023-04-09T03:23:37;99016.22;;;7.79;64.06
48874;BME280;66155;46.204;5.220;2023-04-09T03:28:37;99011.69;;;7.74;63.35
48874;BME280;66155;46.204;5.220;2023-04-09T03:33:38;99012.91;;;8.02;62.27
48874;BME280;66155;46.204;5.220;2023-04-09T03:38:38;99008.03;;;7.94;62.85
48874;BME280;66155;46.204;5.220;2023-04-09T03:43:39;99007.81;;;7.95;62.77
48874;BME280;66155;46.204;5.220;2023-04-09T03:48:40;99024.34;;;8.13;62.05
48874;BME280;66155;46.204;5.220;2023-04-09T03:53:41;99028.06;;;8.17;61.63
48874;BME280;66155;46.204;5.220;2023-04-09T03:58:42;99025.47;;;8.17;61.77
48874;BME280;66155;46.204;5.220;2023-04-09T04:03:42;99022.09;;;8.16;61.92
48874;BME280;66155;46.204;5.220;2023-04-09T04:08:43;99022.88;;;8.17;61.89
48874;BME280;66155;46.204;5.220;2023-04-09T04:13:43;99018.72;;;8.28;61.52
48874;BME280;66155;46.204;5.220;2023-04-09T04:18:44;99020.00;;;8.37;61.00
48874;BME280;66155;46.204;5.220;2023-04-09T04:23:44;99031.16;;;8.37;61.06
48874;BME280;66155;46.204;5.220;2023-04-09T04:28:45;99034.13;;;8.41;60.76
48874;BME280;66155;46.204;5.220;2023-04-09T04:33:45;99038.09;;;8.44;60.51
48874;BME280;66155;46.204;5.220;2023-04-09T04:38:46;99043.88;;;8.46;60.33
48874;BME280;66155;46.204;5.220;2023-04-09T04:43:46;99057.91;;;8.38;60.21
48874;BME280;66155;46.204;5.220;2023-04-09T04:48:47;99055.78;;;8.35;60.52
48874;BME280;66155;46.204;5.220;2023-04-09T04:53:47;99063.31;;;8.25;60.86
48874;BME280;66155;46.204;5.220;2023-04-09T04:58:48;99059.84;;;8.00;61.68
48874;BME280;66155;46.204;5.220;2023-04-09T05:03:48;99064.16;;;7.76;62.39
48874;BME280;66155;46.204;5.220;2023-04-09T05:08:49;99071.44;;;7.68;62.77
48874;BME280;66155;46.204;5.220;2023-04-09T05:13:49;99063.09;;;7.29;64.50
48874;BME280;66155;46.204;5.220;2023-04-09T05:18:50;99079.63;;;7.09;63.87
48874;BME280;66155;46.204;5.220;2023-04-09T05:23:51;99071.53;;;6.99;64.38
48874;BME280;66155;46.204;5.220;2023-04-09T05:28:51;99074.09;;;7.24;63.46
48874;BME280;66155;46.204;5.220;2023-04-09T05:33:52;99072.16;;;7.56;62.56
48874;BME280;66155;46.204;5.220;2023-04-09T05:38:52;99071.13;;;7.76;62.12
48874;BME280;66155;46.204;5.220;2023-04-09T05:43:52;99073.34;;;7.91;61.55
48874;BME280;66155;46.204;5.220;2023-04-09T05:48:53;99070.34;;;8.06;61.29
48874;BME280;66155;46.204;5.220;2023-04-09T05:53:53;99080.13;;;8.22;60.89
48874;BME280;66155;46.204;5.220;2023-04-09T05:58:54;99077.34;;;8.35;60.77
48874;BME280;66155;46.204;5.220;2023-04-09T06:03:54;99079.97;;;8.47;60.43
48874;BME280;66155;46.204;5.220;2023-04-09T06:08:55;99079.66;;;8.55;60.55
48874;BME280;66155;46.204;5.220;2023-04-09T06:13:55;99076.28;;;8.67;60.31
48874;BME280;66155;46.204;5.220;2023-04-09T06:18:56;99087.50;;;8.79;60.18
48874;BME280;66155;46.204;5.220;2023-04-09T06:23:56;99091.25;;;8.83;59.98
48874;BME280;66155;46.204;5.220;2023-04-09T06:28:57;99106.13;;;8.88;59.48
48874;BME280;66155;46.204;5.220;2023-04-09T06:33:58;99103.31;;;8.89;60.03
48874;BME280;66155;46.204;5.220;2023-04-09T06:38:58;99109.63;;;8.93;59.83
48874;BME280;66155;46.204;5.220;2023-04-09T06:43:59;99115.75;;;8.87;59.70
48874;BME280;66155;46.204;5.220;2023-04-09T06:49:01;99119.94;;;8.88;59.98
48874;BME280;66155;46.204;5.220;2023-04-09T06:54:01;99121.53;;;9.01;59.64
48874;BME280;66155;46.204;5.220;2023-04-09T06:59:02;99121.44;;;9.08;59.82
48874;BME280;66155;46.204;5.220;2023-04-09T07:04:03;99125.94;;;9.12;60.19
48874;BME280;66155;46.204;5.220;2023-04-09T07:09:03;99124.03;;;9.08;60.35
48874;BME280;66155;46.204;5.220;2023-04-09T07:14:04;99133.41;;;9.09;60.15
48874;BME280;66155;46.204;5.220;2023-04-09T07:19:04;99131.81;;;9.20;60.20
48874;BME280;66155;46.204;5.220;2023-04-09T07:24:06;99127.84;;;9.41;59.97
48874;BME280;66155;46.204;5.220;2023-04-09T07:29:07;99132.25;;;9.52;60.05
48874;BME280;66155;46.204;5.220;2023-04-09T07:34:07;99135.50;;;9.59;59.95
48874;BME280;66155;46.204;5.220;2023-04-09T07:39:08;99134.94;;;9.69;59.87
48874;BME280;66155;46.204;5.220;2023-04-09T07:44:08;99129.25;;;9.84;59.92
48874;BME280;66155;46.204;5.220;2023-04-09T07:49:08;99147.00;;;9.99;59.80
48874;BME280;66155;46.204;5.220;2023-04-09T07:54:09;99151.88;;;9.95;59.94
48874;BME280;66155;46.204;5.220;2023-04-09T07:59:09;99149.06;;;9.85;60.84
48874;BME280;66155;46.204;5.220;2023-04-09T08:04:10;99143.03;;;9.96;59.93
48874;BME280;66155;46.204;5.220;2023-04-09T08:09:12;99158.09;;;9.94;60.66
48874;BME280;66155;46.204;5.220;2023-04-09T08:14:13;99155.78;;;10.09;59.77
48874;BME280;66155;46.204;5.220;2023-04-09T08:19:15;99153.13;;;10.21;60.48
48874;BME280;66155;46.204;5.220;2023-04-09T08:24:16;99157.97;;;10.41;59.61
48874;BME280;66155;46.204;5.220;2023-04-09T08:29:17;99152.53;;;10.43;59.88
48874;BME280;66155;46.204;5.220;2023-04-09T08:34:17;99159.94;;;10.34;60.38
48874;BME280;66155;46.204;5.220;2023-04-09T08:39:20;99156.47;;;10.45;60.04
48874;BME280;66155;46.204;5.220;2023-04-09T08:44:20;99156.25;;;10.64;59.69
48874;BME280;66155;46.204;5.220;2023-04-09T08:49:21;99157.25;;;10.75;59.66
48874;BME280;66155;46.204;5.220;2023-04-09T08:54:22;99157.47;;;10.90;59.24
48874;BME280;66155;46.204;5.220;2023-04-09T08:59:25;99147.28;;;11.06;59.30
48874;BME280;66155;46.204;5.220;2023-04-09T09:04:43;99143.31;;;11.20;59.26
48874;BME280;66155;46.204;5.220;2023-04-09T09:09:54;99141.41;;;11.32;58.80
48874;BME280;66155;46.204;5.220;2023-04-09T09:14:55;99152.78;;;11.43;58.75
48874;BME280;66155;46.204;5.220;2023-04-09T09:19:56;99149.19;;;11.49;58.60
48874;BME280;66155;46.204;5.220;2023-04-09T09:24:57;99162.56;;;11.53;58.67
48874;BME280;66155;46.204;5.220;2023-04-09T09:29:58;99155.94;;;11.45;58.70
48874;BME280;66155;46.204;5.220;2023-04-09T09:35:04;99152.31;;;11.46;58.21
48874;BME280;66155;46.204;5.220;2023-04-09T09:40:05;99154.47;;;11.54;58.16
48874;BME280;66155;46.204;5.220;2023-04-09T09:45:27;99150.25;;;11.70;58.38
48874;BME280;66155;46.204;5.220;2023-04-09T09:50:29;99142.19;;;11.72;57.91
48874;BME280;66155;46.204;5.220;2023-04-09T09:55:31;99140.97;;;11.79;57.21
48874;BME280;66155;46.204;5.220;2023-04-09T10:00:34;99141.03;;;11.85;57.25
48874;BME280;66155;46.204;5.220;2023-04-09T10:05:37;99131.16;;;12.09;57.27
48874;BME280;66155;46.204;5.220;2023-04-09T10:10:40;99138.59;;;12.22;56.87
48874;BME280;66155;46.204;5.220;2023-04-09T10:15:43;99134.22;;;12.28;56.87
48874;BME280;66155;46.204;5.220;2023-04-09T10:20:49;99134.59;;;12.36;56.65
48874;BME280;66155;46.204;5.220;2023-04-09T10:25:55;99132.00;;;12.42;56.20
48874;BME280;66155;46.204;5.220;2023-04-09T10:30:56;99128.53;;;12.63;55.92
48874;BME280;66155;46.204;5.220;2023-04-09T10:36:03;99127.13;;;12.83;55.62
48874;BME280;66155;46.204;5.220;2023-04-09T10:41:06;99122.44;;;12.85;54.89
48874;BME280;66155;46.204;5.220;2023-04-09T10:46:28;99122.22;;;12.91;54.58
48874;BME280;66155;46.204;5.220;2023-04-09T10:51:34;99109.81;;;13.14;54.21
48874;BME280;66155;46.204;5.220;2023-04-09T10:56:34;99107.16;;;13.09;54.05
48874;BME280;66155;46.204;5.220;2023-04-09T11:01:35;99105.13;;;13.21;53.58
48874;BME280;66155;46.204;5.220;2023-04-09T11:06:37;99089.28;;;13.33;53.36
48874;BME280;66155;46.204;5.220;2023-04-09T11:11:39;99094.50;;;13.33;52.55
48874;BME280;66155;46.204;5.220;2023-04-09T11:16:39;99076.75;;;13.40;52.03
48874;BME280;66155;46.204;5.220;2023-04-09T11:21:43;99082.59;;;13.58;51.27
48874;BME280;66155;46.204;5.220;2023-04-09T11:26:45;99078.97;;;13.69;51.43
48874;BME280;66155;46.204;5.220;2023-04-09T11:31:47;99071.94;;;13.90;50.66
48874;BME280;66155;46.204;5.220;2023-04-09T11:36:48;99077.47;;;13.99;49.72
48874;BME280;66155;46.204;5.220;2023-04-09T11:41:48;99077.47;;;14.04;49.37
48874;BME280;66155;46.204;5.220;2023-04-09T11:46:49;99075.66;;;14.15;48.91
48874;BME280;66155;46.204;5.220;2023-04-09T11:51:50;99075.97;;;14.34;48.46
48874;BME280;66155;46.204;5.220;2023-04-09T11:56:50;99063.91;;;14.53;48.36
48874;BME280;66155;46.204;5.220;2023-04-09T12:01:58;99059.97;;;14.56;47.19
48874;BME280;66155;46.204;5.220;2023-04-09T12:06:59;99060.00;;;14.66;47.12
48874;BME280;66155;46.204;5.220;2023-04-09T12:12:00;99056.81;;;14.85;47.52
48874;BME280;66155;46.204;5.220;2023-04-09T12:17:01;99050.78;;;14.94;46.39
48874;BME280;66155;46.204;5.220;2023-04-09T12:22:01;99054.97;;;14.85;45.78
48874;BME280;66155;46.204;5.220;2023-04-09T12:27:02;99049.97;;;14.94;46.53
48874;BME280;66155;46.204;5.220;2023-04-09T12:32:02;99055.16;;;15.25;46.21
48874;BME280;66155;46.204;5.220;2023-04-09T12:37:03;99050.69;;;15.20;46.59
48874;BME280;66155;46.204;5.220;2023-04-09T12:42:04;99050.13;;;15.33;46.04
48874;BME280;66155;46.204;5.220;2023-04-09T12:47:04;99048.75;;;15.51;46.47
48874;BME280;66155;46.204;5.220;2023-04-09T12:52:04;99047.44;;;15.49;45.99
48874;BME280;66155;46.204;5.220;2023-04-09T12:57:05;99055.75;;;15.66;45.75
48874;BME280;66155;46.204;5.220;2023-04-09T13:02:06;99041.00;;;15.81;44.89
48874;BME280;66155;46.204;5.220;2023-04-09T13:07:07;99037.25;;;15.92;44.05
48874;BME280;66155;46.204;5.220;2023-04-09T13:12:08;99037.56;;;15.85;42.76
48874;BME280;66155;46.204;5.220;2023-04-09T13:17:08;99029.25;;;16.07;42.93
48874;BME280;66155;46.204;5.220;2023-04-09T13:22:09;99018.59;;;16.28;41.48
48874;BME280;66155;46.204;5.220;2023-04-09T13:27:09;99013.44;;;16.47;41.90
48874;BME280;66155;46.204;5.220;2023-04-09T13:32:10;99016.16;;;16.66;41.93
48874;BME280;66155;46.204;5.220;2023-04-09T13:37:10;99007.66;;;16.74;41.66
48874;BME280;66155;46.204;5.220;2023-04-09T13:42:11;99007.13;;;17.01;40.18
48874;BME280;66155;46.204;5.220;2023-04-09T13:47:13;99011.72;;;17.15;40.75
48874;BME280;66155;46.204;5.220;2023-04-09T13:52:13;99000.28;;;17.24;39.12
48874;BME280;66155;46.204;5.220;2023-04-09T13:57:14;98997.94;;;17.42;37.63
48874;BME280;66155;46.204;5.220;2023-04-09T14:02:15;99005.34;;;17.40;37.69
48874;BME280;66155;46.204;5.220;2023-04-09T14:07:17;99004.22;;;17.46;38.44
48874;BME280;66155;46.204;5.220;2023-04-09T14:12:17;98990.78;;;17.85;38.68
48874;BME280;66155;46.204;5.220;2023-04-09T14:17:17;98991.13;;;17.98;38.23
48874;BME280;66155;46.204;5.220;2023-04-09T14:22:18;98985.75;;;18.03;38.00
48874;BME280;66155;46.204;5.220;2023-04-09T14:27:18;98983.66;;;18.19;36.42
48874;BME280;66155;46.204;5.220;2023-04-09T14:32:19;98985.84;;;18.31;35.86
48874;BME280;66155;46.204;5.220;2023-04-09T14:37:19;98988.34;;;18.55;36.37
48874;BME280;66155;46.204;5.220;2023-04-09T14:42:19;98980.03;;;18.61;36.49
48874;BME280;66155;46.204;5.220;2023-04-09T14:47:20;98978.09;;;18.67;34.20
48874;BME280;66155;46.204;5.220;2023-04-09T14:52:20;98972.06;;;18.94;33.75
48874;BME280;66155;46.204;5.220;2023-04-09T14:57:21;98959.25;;;19.02;34.97
48874;BME280;66155;46.204;5.220;2023-04-09T15:02:21;98964.53;;;19.38;34.51
48874;BME280;66155;46.204;5.220;2023-04-09T15:07:21;98961.28;;;19.55;34.51
48874;BME280;66155;46.204;5.220;2023-04-09T15:12:22;98957.59;;;19.65;34.43
48874;BME280;66155;46.204;5.220;2023-04-09T15:17:23;98951.69;;;19.82;34.52
48874;BME280;66155;46.204;5.220;2023-04-09T15:22:23;98963.34;;;19.81;33.14
48874;BME280;66155;46.204;5.220;2023-04-09T15:27:24;98949.19;;;19.63;33.45
48874;BME280;66155;46.204;5.220;2023-04-09T15:32:24;98943.19;;;19.85;33.00
48874;BME280;66155;46.204;5.220;2023-04-09T15:37:25;98948.06;;;20.23;32.82
48874;BME280;66155;46.204;5.220;2023-04-09T15:42:25;98939.22;;;20.27;32.23
48874;BME280;66155;46.204;5.220;2023-04-09T15:47:26;98938.38;;;20.98;32.42
48874;BME280;66155;46.204;5.220;2023-04-09T15:52:26;98934.38;;;22.44;28.97
48874;BME280;66155;46.204;5.220;2023-04-09T15:57:26;98923.97;;;24.94;28.33
48874;BME280;66155;46.204;5.220;2023-04-09T16:02:27;98928.94;;;25.76;26.47
48874;BME280;66155;46.204;5.220;2023-04-09T16:07:28;98923.97;;;26.86;26.11
48874;BME280;66155;46.204;5.220;2023-04-09T16:12:28;98916.94;;;27.56;25.45
48874;BME280;66155;46.204;5.220;2023-04-09T16:17:29;98916.66;;;28.27;23.97
48874;BME280;66155;46.204;5.220;2023-04-09T16:22:29;98910.88;;;29.09;23.86
48874;BME280;66155;46.204;5.220;2023-04-09T16:27:31;98904.56;;;29.24;21.88
48874;BME280;66155;46.204;5.220;2023-04-09T16:32:31;98911.63;;;29.06;21.80
48874;BME280;66155;46.204;5.220;2023-04-09T16:37:32;98900.88;;;29.06;20.12
48874;BME280;66155;46.204;5.220;2023-04-09T16:42:34;98899.63;;;28.96;20.93
48874;BME280;66155;46.204;5.220;2023-04-09T16:47:35;98912.03;;;28.28;21.37
48874;BME280;66155;46.204;5.220;2023-04-09T16:52:37;98907.63;;;28.39;21.34
48874;BME280;66155;46.204;5.220;2023-04-09T16:57:38;98909.97;;;28.97;21.20
48874;BME280;66155;46.204;5.220;2023-04-09T17:02:39;98909.00;;;29.13;20.68
48874;BME280;66155;46.204;5.220;2023-04-09T17:07:39;98910.69;;;29.21;20.72
48874;BME280;66155;46.204;5.220;2023-04-09T17:12:40;98909.75;;;29.10;21.13
48874;BME280;66155;46.204;5.220;2023-04-09T17:17:41;98914.09;;;28.11;22.02
48874;BME280;66155;46.204;5.220;2023-04-09T17:22:42;98916.19;;;27.98;21.97
48874;BME280;66155;46.204;5.220;2023-04-09T17:27:43;98927.25;;;27.97;22.00
48874;BME280;66155;46.204;5.220;2023-04-09T17:32:44;98923.38;;;26.97;22.53
48874;BME280;66155;46.204;5.220;2023-04-09T17:37:44;98922.63;;;26.29;22.57
48874;BME280;66155;46.204;5.220;2023-04-09T17:42:45;98931.81;;;25.15;23.45
48874;BME280;66155;46.204;5.220;2023-04-09T17:47:46;98938.94;;;24.12;24.13
48874;BME280;66155;46.204;5.220;2023-04-09T17:52:47;98940.69;;;22.90;25.15
48874;BME280;66155;46.204;5.220;2023-04-09T17:57:47;98940.59;;;22.48;25.76
48874;BME280;66155;46.204;5.220;2023-04-09T18:02:50;98937.97;;;21.75;26.00
48874;BME280;66155;46.204;5.220;2023-04-09T18:07:51;98944.09;;;20.83;27.11
48874;BME280;66155;46.204;5.220;2023-04-09T18:12:51;98944.34;;;20.24;27.89
48874;BME280;66155;46.204;5.220;2023-04-09T18:17:52;98948.69;;;19.74;28.21
48874;BME280;66155;46.204;5.220;2023-04-09T18:22:53;98949.69;;;19.42;28.66
48874;BME280;66155;46.204;5.220;2023-04-09T18:27:54;98954.25;;;19.00;29.54
48874;BME280;66155;46.204;5.220;2023-04-09T18:32:55;98972.81;;;18.53;30.87
48874;BME280;66155;46.204;5.220;2023-04-09T18:37:55;98968.34;;;18.21;31.05
48874;BME280;66155;46.204;5.220;2023-04-09T18:42:56;98970.63;;;17.95;31.88
48874;BME280;66155;46.204;5.220;2023-04-09T18:47:56;98979.00;;;17.78;32.29
48874;BME280;66155;46.204;5.220;2023-04-09T18:52:57;98991.75;;;17.52;33.06
48874;BME280;66155;46.204;5.220;2023-04-09T18:57:57;98991.19;;;17.36;33.08
48874;BME280;66155;46.204;5.220;2023-04-09T19:02:58;98996.94;;;17.19;34.02
48874;BME280;66155;46.204;5.220;2023-04-09T19:07:59;98995.88;;;16.96;34.41
48874;BME280;66155;46.204;5.220;2023-04-09T19:13:01;99006.50;;;16.85;34.73
48874;BME280;66155;46.204;5.220;2023-04-09T19:18:01;99015.50;;;16.79;34.94
48874;BME280;66155;46.204;5.220;2023-04-09T19:23:02;99018.31;;;16.59;36.07
48874;BME280;66155;46.204;5.220;2023-04-09T19:28:02;99019.47;;;16.47;36.50
48874;BME280;66155;46.204;5.220;2023-04-09T19:33:03;99016.19;;;16.31;37.55
48874;BME280;66155;46.204;5.220;2023-04-09T19:38:03;99023.56;;;16.34;36.04
48874;BME280;66155;46.204;5.220;2023-04-09T19:43:04;99023.09;;;16.27;36.25
48874;BME280;66155;46.204;5.220;2023-04-09T19:48:05;99022.06;;;16.18;36.91
48874;BME280;66155;46.204;5.220;2023-04-09T19:53:06;99014.84;;;16.05;37.41
48874;BME280;66155;46.204;5.220;2023-04-09T19:58:06;99025.91;;;15.96;37.51
48874;BME280;66155;46.204;5.220;2023-04-09T20:03:07;99024.66;;;15.89;37.70
48874;BME280;66155;46.204;5.220;2023-04-09T20:08:08;99027.34;;;15.78;37.61
48874;BME280;66155;46.204;5.220;2023-04-09T20:13:08;99018.94;;;15.71;38.27
48874;BME280;66155;46.204;5.220;2023-04-09T20:18:09;99020.81;;;15.66;38.51
48874;BME280;66155;46.204;5.220;2023-04-09T20:23:10;99020.06;;;15.65;38.33
48874;BME280;66155;46.204;5.220;2023-04-09T20:28:10;99017.94;;;15.67;38.32
48874;BME280;66155;46.204;5.220;2023-04-09T20:33:11;99018.69;;;15.73;38.29
48874;BME280;66155;46.204;5.220;2023-04-09T20:38:11;99017.63;;;15.79;38.34
48874;BME280;66155;46.204;5.220;2023-04-09T20:43:12;99022.88;;;15.79;38.44
48874;BME280;66155;46.204;5.220;2023-04-09T20:48:12;99019.72;;;15.77;38.64
48874;BME280;66155;46.204;5.220;2023-04-09T20:53:14;99023.69;;;15.74;39.04
48874;BME280;66155;46.204;5.220;2023-04-09T20:58:14;99015.28;;;15.72;38.58
48874;BME280;66155;46.204;5.220;2023-04-09T21:03:14;99012.91;;;15.71;38.79
48874;BME280;66155;46.204;5.220;2023-04-09T21:08:15;99015.31;;;15.67;39.15
48874;BME280;66155;46.204;5.220;2023-04-09T21:13:15;99018.72;;;15.63;39.07
48874;BME280;66155;46.204;5.220;2023-04-09T21:18:16;99014.59;;;15.51;39.63
48874;BME280;66155;46.204;5.220;2023-04-09T21:23:17;99008.38;;;15.37;39.65
48874;BME280;66155;46.204;5.220;2023-04-09T21:28:18;99012.81;;;15.36;39.98
48874;BME280;66155;46.204;5.220;2023-04-09T21:33:18;99005.75;;;15.32;39.90
48874;BME280;66155;46.204;5.220;2023-04-09T21:38:19;99004.47;;;15.24;40.42
48874;BME280;66155;46.204;5.220;2023-04-09T21:43:19;99011.91;;;15.07;40.94
48874;BME280;66155;46.204;5.220;2023-04-09T21:48:20;99010.34;;;14.95;40.87
48874;BME280;66155;46.204;5.220;2023-04-09T21:53:20;99013.81;;;14.60;43.02
48874;BME280;66155;46.204;5.220;2023-04-09T21:58:21;99017.22;;;14.45;41.83
48874;BME280;66155;46.204;5.220;2023-04-09T22:03:22;99015.13;;;14.42;41.88
48874;BME280;66155;46.204;5.220;2023-04-09T22:08:23;99014.34;;;14.16;43.58
48874;BME280;66155;46.204;5.220;2023-04-09T22:13:24;99019.56;;;13.90;42.92
48874;BME280;66155;46.204;5.220;2023-04-09T22:18:25;99017.72;;;13.80;43.21
48874;BME280;66155;46.204;5.220;2023-04-09T22:23:25;99018.75;;;13.79;43.18
48874;BME280;66155;46.204;5.220;2023-04-09T22:28:26;99028.94;;;13.71;44.32
48874;BME280;66155;46.204;5.220;2023-04-09T22:33:28;99029.44;;;13.52;43.70
48874;BME280;66155;46.204;5.220;2023-04-09T22:38:29;99033.25;;;13.34;44.60
48874;BME280;66155;46.204;5.220;2023-04-09T22:43:29;99034.66;;;13.52;43.55
48874;BME280;66155;46.204;5.220;2023-04-09T22:48:29;99026.59;;;13.69;43.67
48874;BME280;66155;46.204;5.220;2023-04-09T22:53:30;99024.00;;;13.79;43.57
48874;BME280;66155;46.204;5.220;2023-04-09T22:58:30;99028.19;;;13.85;43.37
48874;BME280;66155;46.204;5.220;2023-04-09T23:03:31;99020.63;;;13.84;43.47
48874;BME280;66155;46.204;5.220;2023-04-09T23:08:31;99018.78;;;13.84;43.59
48874;BME280;66155;46.204;5.220;2023-04-09T23:13:32;99020.34;;;13.80;43.95
48874;BME280;66155;46.204;5.220;2023-04-09T23:18:34;99019.28;;;13.81;43.92
48874;BME280;66155;46.204;5.220;2023-04-09T23:23:35;99023.47;;;13.77;44.07
48874;BME280;66155;46.204;5.220;2023-04-09T23:28:36;99030.78;;;13.70;44.40
48874;BME280;66155;46.204;5.220;2023-04-09T23:33:36;99037.03;;;13.64;44.35
48874;BME280;66155;46.204;5.220;2023-04-09T23:38:37;99038.34;;;13.61;44.78
48874;BME280;66155;46.204;5.220;2023-04-09T23:43:39;99032.31;;;13.50;45.13
48874;BME280;66155;46.204;5.220;2023-04-09T23:48:40;99036.44;;;13.46;45.20
48874;BME280;66155;46.204;5.220;2023-04-09T23:53:40;99032.25;;;13.40;45.13
48874;BME280;66155;46.204;5.220;2023-04-09T23:58:41;99027.53;;;13.37;45.39
